createdAt,value
2023-04-05T00:03:35.508Z,99836.34
2023-04-05T00:08:28.588Z,99826.56
2023-04-05T00:13:21.905Z,99822.41
2023-04-05T00:18:21.906Z,99818.66
2023-04-05T00:23:14.652Z,99819.25
2023-04-05T00:28:06.662Z,99818.00
2023-04-05T00:32:58.305Z,99818.19
2023-04-05T00:37:50.010Z,99816.72
2023-04-05T00:42:41.747Z,99813.41
2023-04-05T00:47:33.522Z,99805.28
2023-04-05T00:52:25.273Z,99810.25
2023-04-05T00:57:18.348Z,99799.44
2023-04-05T01:02:52.074Z,99794.47
2023-04-05T01:08:02.318Z,99787.16
2023-04-05T01:12:54.734Z,99781.34
2023-04-05T01:17:47.255Z,99778.44
2023-04-05T01:23:03.402Z,99776.16
2023-04-05T01:27:57.866Z,99767.38
2023-04-05T01:33:34.557Z,99760.91
2023-04-05T01:38:28.302Z,99753.00
2023-04-05T01:43:20.003Z,99750.91
2023-04-05T01:48:12.188Z,99729.06
2023-04-05T01:53:03.957Z,99739.03
2023-04-05T01:57:56.906Z,99737.59
2023-04-05T02:02:48.956Z,99726.31
2023-04-05T02:07:40.812Z,99721.69
2023-04-05T02:12:32.692Z,99723.38
2023-04-05T02:17:25.241Z,99723.38
2023-04-05T02:22:16.929Z,99712.75
2023-04-05T02:27:08.576Z,99705.28
2023-04-05T02:32:00.492Z,99700.06
2023-04-05T02:36:52.389Z,99698.84
2023-04-05T02:41:44.084Z,99692.16
2023-04-05T02:46:35.663Z,99694.25
2023-04-05T02:51:27.282Z,99682.59
2023-04-05T02:56:19.193Z,99690.69
2023-04-05T03:01:10.835Z,99678.44
2023-04-05T03:06:11.074Z,99683.84
2023-04-05T03:11:03.012Z,99677.78
2023-04-05T03:15:55.365Z,99665.50
2023-04-05T03:20:50.284Z,99667.78
2023-04-05T03:25:43.075Z,99659.88
2023-04-05T03:30:35.971Z,99659.28
2023-04-05T03:35:31.092Z,99660.69
2023-04-05T03:40:23.958Z,99648.41
2023-04-05T03:45:19.804Z,99647.19
2023-04-05T03:50:13.743Z,99641.53
2023-04-05T03:55:07.019Z,99652.13
2023-04-05T03:59:58.656Z,99638.59
2023-04-05T04:04:51.486Z,99639.22
2023-04-05T04:09:43.105Z,99631.31
2023-04-05T04:14:35.554Z,99636.72
2023-04-05T04:19:27.168Z,99633.63
2023-04-05T04:24:19.565Z,99631.13
2023-04-05T04:29:12.964Z,99629.84
2023-04-05T04:34:05.698Z,99611.56
2023-04-05T04:38:57.301Z,99611.13
2023-04-05T04:43:48.887Z,99617.56
2023-04-05T04:48:42.420Z,99613.22
2023-04-05T04:53:34.490Z,99614.63
2023-04-05T04:58:26.226Z,99596.34
2023-04-05T05:03:17.850Z,99591.56
2023-04-05T05:08:09.609Z,99598.84
2023-04-05T05:13:01.262Z,99599.03
2023-04-05T05:17:55.331Z,99589.25
2023-04-05T05:22:47.188Z,99585.75
2023-04-05T05:27:38.960Z,99594.22
2023-04-05T05:32:30.746Z,99583.63
2023-04-05T05:37:30.267Z,99585.06
2023-04-05T05:42:21.903Z,99585.25
2023-04-05T05:47:13.529Z,99588.56
2023-04-05T05:52:05.613Z,99591.84
2023-04-05T05:56:57.362Z,99582.50
2023-04-05T06:01:51.286Z,99575.00
2023-04-05T06:06:44.031Z,99564.59
2023-04-05T06:11:38.960Z,99568.34
2023-04-05T06:16:35.598Z,99565.66
2023-04-05T06:21:27.786Z,99561.72
2023-04-05T06:26:21.720Z,99558.41
2023-04-05T06:31:14.308Z,99560.50
2023-04-05T06:36:06.203Z,99544.91
2023-04-05T06:40:57.882Z,99546.00
2023-04-05T06:45:49.521Z,99550.16
2023-04-05T06:50:41.885Z,99544.56
2023-04-05T06:55:33.851Z,99551.63
2023-04-05T07:00:25.550Z,99543.53
2023-04-05T07:05:17.415Z,99548.91
2023-04-05T07:10:09.614Z,99547.50
2023-04-05T07:15:01.362Z,99543.78
2023-04-05T07:19:52.943Z,99541.69
2023-04-05T07:24:48.657Z,99546.06
2023-04-05T07:29:45.378Z,99546.28
2023-04-05T07:34:38.386Z,99534.28
2023-04-05T07:39:30.152Z,99536.56
2023-04-05T07:44:22.234Z,99535.13
2023-04-05T07:49:14.171Z,99536.41
2023-04-05T07:54:07.492Z,99528.50
2023-04-05T07:58:59.813Z,99528.31
2023-04-05T08:03:51.742Z,99529.59
2023-04-05T08:08:44.615Z,99529.16
2023-04-05T08:13:38.657Z,99523.16
2023-04-05T08:18:30.767Z,99532.50
2023-04-05T08:23:22.903Z,99529.41
2023-04-05T08:28:15.055Z,99518.59
2023-04-05T08:33:07.395Z,99519.41
2023-04-05T08:37:59.137Z,99517.34
2023-04-05T08:43:02.626Z,99520.88
2023-04-05T08:47:54.412Z,99509.88
2023-04-05T08:52:49.922Z,99526.69
2023-04-05T08:57:49.893Z,99516.34
2023-04-05T09:02:45.512Z,99509.47
2023-04-05T09:07:39.080Z,99513.84
2023-04-05T09:12:30.969Z,99514.47
2023-04-05T09:17:23.090Z,99505.13
2023-04-05T09:22:18.517Z,99508.84
2023-04-05T09:27:18.632Z,99504.25
2023-04-05T09:32:12.092Z,99500.91
2023-04-05T09:37:14.395Z,99502.78
2023-04-05T09:42:07.077Z,99484.25
2023-04-05T09:47:15.392Z,99489.03
2023-04-05T09:52:21.153Z,99488.78
2023-04-05T09:57:13.046Z,99485.03
2023-04-05T10:02:04.845Z,99487.09
2023-04-05T10:06:56.843Z,99474.16
2023-04-05T10:11:48.658Z,99481.16
2023-04-05T10:17:05.217Z,99474.66
2023-04-05T10:22:01.021Z,99475.91
2023-04-05T10:27:05.427Z,99475.66
2023-04-05T10:32:08.105Z,99477.88
2023-04-05T10:37:01.894Z,99470.09
2023-04-05T10:42:01.130Z,99469.44
2023-04-05T10:46:55.296Z,99466.25
2023-04-05T10:51:48.172Z,99466.53
2023-04-05T10:56:40.518Z,99466.66
2023-04-05T11:01:33.056Z,99462.06
2023-04-05T11:06:32.444Z,99460.44
2023-04-05T11:11:26.557Z,99463.44
2023-04-05T11:16:18.326Z,99450.03
2023-04-05T11:21:09.973Z,99458.53
2023-04-05T11:26:06.208Z,99453.97
2023-04-05T11:31:02.134Z,99443.34
2023-04-05T11:36:00.974Z,99441.72
2023-04-05T11:41:06.201Z,99437.75
2023-04-05T11:45:57.831Z,99435.44
2023-04-05T11:50:51.364Z,99435.16
2023-04-05T11:55:47.618Z,99428.66
2023-04-05T12:00:41.352Z,99429.72
2023-04-05T12:06:09.133Z,99429.00
2023-04-05T12:11:03.702Z,99419.84
2023-04-05T12:16:01.844Z,99414.22
2023-04-05T12:20:54.778Z,99413.25
2023-04-05T12:25:50.841Z,99418.25
2023-04-05T12:30:57.731Z,99406.81
2023-04-05T12:35:51.927Z,99404.34
2023-04-05T12:40:44.149Z,99406.66
2023-04-05T12:45:43.867Z,99405.59
2023-04-05T12:50:36.266Z,99406.34
2023-04-05T12:55:29.704Z,99403.47
2023-04-05T13:00:26.347Z,99399.31
2023-04-05T13:05:18.005Z,99392.28
2023-04-05T13:10:10.275Z,99387.31
2023-04-05T13:15:01.915Z,99382.91
2023-04-05T13:19:53.523Z,99374.16
2023-04-05T13:24:45.160Z,99382.69
2023-04-05T13:29:36.701Z,99381.09
2023-04-05T13:34:28.299Z,99377.38
2023-04-05T13:39:20.173Z,99365.59
2023-04-05T13:44:11.952Z,99365.00
2023-04-05T13:49:03.549Z,99361.41
2023-04-05T13:53:55.174Z,99361.56
2023-04-05T13:58:46.818Z,99349.25
2023-04-05T14:03:38.534Z,99338.41
2023-04-05T14:08:30.457Z,99340.03
2023-04-05T14:13:22.898Z,99330.44
2023-04-05T14:18:17.772Z,99328.50
2023-04-05T14:23:09.504Z,99314.50
2023-04-05T14:28:01.217Z,99302.59
2023-04-05T14:32:52.948Z,99300.97
2023-04-05T14:37:44.717Z,99286.34
2023-04-05T14:42:47.559Z,99290.56
2023-04-05T14:47:40.762Z,99289.72
2023-04-05T14:52:32.383Z,99277.78
2023-04-05T14:57:24.039Z,99271.16
2023-04-05T15:02:15.843Z,99270.50
2023-04-05T15:07:07.588Z,99262.41
2023-04-05T15:11:59.358Z,99255.38
2023-04-05T15:16:51.499Z,99246.38
2023-04-05T15:21:44.037Z,99240.75
2023-04-05T15:26:35.980Z,99244.53
2023-04-05T15:31:27.665Z,99243.31
2023-04-05T15:36:19.346Z,99240.81
2023-04-05T15:41:11.193Z,99236.63
2023-04-05T15:46:05.114Z,99229.91
2023-04-05T15:50:56.819Z,99236.69
2023-04-05T15:55:48.503Z,99229.63
2023-04-05T16:00:41.563Z,99225.47
2023-04-05T16:05:33.207Z,99225.91
2023-04-05T16:10:25.436Z,99218.03
2023-04-05T16:15:17.101Z,99209.31
2023-04-05T16:20:09.296Z,99213.88
2023-04-05T16:25:00.967Z,99203.50
2023-04-05T16:29:52.615Z,99198.53
2023-04-05T16:34:44.394Z,99193.09
2023-04-05T16:39:36.279Z,99198.28
2023-04-05T16:44:28.961Z,99188.53
2023-04-05T16:49:21.604Z,99189.72
2023-04-05T16:54:13.375Z,99190.13
2023-04-05T16:59:07.304Z,99186.13
2023-04-05T17:04:00.141Z,99184.47
2023-04-05T17:08:52.215Z,99175.91
2023-04-05T17:13:45.727Z,99180.94
2023-04-05T17:18:37.388Z,99182.44
2023-04-05T17:23:29.049Z,99175.00
2023-04-05T17:28:20.828Z,99161.47
2023-04-05T17:33:12.817Z,99155.41
2023-04-05T17:38:04.540Z,99156.88
2023-04-05T17:42:56.370Z,99159.78
2023-04-05T17:47:48.266Z,99151.09
2023-04-05T17:52:39.969Z,99159.44
2023-04-05T17:57:31.609Z,99151.97
2023-04-05T18:02:23.476Z,99151.97
2023-04-05T18:07:15.101Z,99147.03
2023-04-05T18:12:06.839Z,99147.47
2023-04-05T18:16:59.391Z,99145.22
2023-04-05T18:21:51.353Z,99155.41
2023-04-05T18:26:43.011Z,99155.03
2023-04-05T18:31:34.697Z,99147.59
2023-04-05T18:36:26.857Z,99146.38
2023-04-05T18:41:18.501Z,99140.00
2023-04-05T18:46:18.194Z,99141.28
2023-04-05T18:51:10.019Z,99143.16
2023-04-05T18:56:01.901Z,99130.06
2023-04-05T19:00:53.730Z,99139.81
2023-04-05T19:05:50.790Z,99145.00
2023-04-05T19:10:42.416Z,99140.66
2023-04-05T19:15:34.178Z,99133.00
2023-04-05T19:20:26.152Z,99141.72
2023-04-05T19:25:17.882Z,99142.53
2023-04-05T19:30:10.068Z,99140.91
2023-04-05T19:35:02.123Z,99137.34
2023-04-05T19:39:54.520Z,99132.16
2023-04-05T19:44:52.303Z,99134.03
2023-04-05T19:49:43.968Z,99125.78
2023-04-05T19:54:36.922Z,99122.84
2023-04-05T19:59:31.138Z,99132.38
2023-04-05T20:04:24.561Z,99117.00
2023-04-05T20:09:18.377Z,99118.84
2023-04-05T20:14:11.133Z,99111.81
2023-04-05T20:19:08.469Z,99117.88
2023-04-05T20:24:02.005Z,99107.28
2023-04-05T20:28:54.941Z,99099.16
2023-04-05T20:34:21.834Z,99085.03
2023-04-05T20:39:13.566Z,99091.72
2023-04-05T20:44:05.727Z,99083.19
2023-04-05T20:48:58.192Z,99078.25
2023-04-05T20:53:50.040Z,99071.19
2023-04-05T20:58:41.857Z,99066.00
2023-04-05T21:03:36.260Z,99065.84
2023-04-05T21:08:30.068Z,99059.00
2023-04-05T21:13:22.069Z,99051.13
2023-04-05T21:18:13.879Z,99039.47
2023-04-05T21:23:05.721Z,99033.59
2023-04-05T21:27:58.024Z,99031.28
2023-04-05T21:32:51.231Z,99024.81
2023-04-05T21:37:43.542Z,99035.88
2023-04-05T21:42:35.274Z,99031.53
2023-04-05T21:47:27.010Z,99020.25
2023-04-05T21:52:19.240Z,99006.97
2023-04-05T21:57:11.021Z,99008.59
2023-04-05T22:02:03.409Z,98996.97
2023-04-05T22:06:55.927Z,99007.09
2023-04-05T22:11:49.881Z,99003.81
2023-04-05T22:16:42.544Z,98991.91
2023-04-05T22:21:34.317Z,98991.69
2023-04-05T22:26:26.180Z,98984.41
2023-04-05T22:31:17.888Z,98980.66
2023-04-05T22:36:10.006Z,98977.03
2023-04-05T22:41:01.841Z,98970.81
2023-04-05T22:45:53.893Z,98957.88
2023-04-05T22:50:45.704Z,98964.50
2023-04-05T22:55:39.938Z,98961.19
2023-04-05T23:00:31.682Z,98956.59
2023-04-05T23:05:24.040Z,98947.66
2023-04-05T23:10:15.708Z,98950.75
2023-04-05T23:15:07.697Z,98936.84
2023-04-05T23:19:59.449Z,98947.44
2023-04-05T23:24:51.140Z,98933.28
2023-04-05T23:29:42.817Z,98933.91
2023-04-05T23:34:34.513Z,98928.28
2023-04-05T23:39:26.196Z,98929.31
2023-04-05T23:44:17.836Z,98926.38
2023-04-05T23:49:09.717Z,98920.75
2023-04-05T23:54:01.831Z,98919.25
2023-04-05T23:58:53.532Z,98911.25
